Masz pytanie?

GDDKiA Wrocław :: Generalna Dyrekcja Dróg Krajowych …

GDDKiA Wrocław - brak komunikatu o id: serwis_descriptionwww.gddkia.gov.pl/pl/54/gddkia-wroclaw

gddkia.gov.pl - Serwis informacyjny

Znajdują się Państwo na stronie GDDKiA.gov.pl. Poniżej prezentujemy instrukcję instalacji darmowego czytnika ekranu wykorzystującego syntezator oparty na...www.gddkia.gov.pl/

Kamery na drogach Polski - TRAX elektronik

Menu 2: Menu2a: Menu 3www.traxelektronik.pl/pogoda/kamery/index.php

Pogoda we Wrocławiu - InfoMeteo.pl

Depesza METAR lotniska Wrocław-Strachowice METAR = EPWR 120400Z 23007KT 9999 BKN035 BKN040 12/09 Q1016 STACJA..... EPWR - Wrocław …wroclaw.infometeo.pl/